sensor_id;sensor_type;location;lat;lon;timestamp;P1;durP1;ratioP1;P2;durP2;ratioP2
10045;SDS011;5063;50.878;4.742;2023-09-12T00:01:34;18.30;;;13.47;;
10045;SDS011;5063;50.878;4.742;2023-09-12T00:03:59;19.60;;;14.43;;
10045;SDS011;5063;50.878;4.742;2023-09-12T00:06:25;18.40;;;13.30;;
10045;SDS011;5063;50.878;4.742;2023-09-12T00:08:51;17.03;;;14.10;;
10045;SDS011;5063;50.878;4.742;2023-09-12T00:11:17;15.17;;;13.30;;
10045;SDS011;5063;50.878;4.742;2023-09-12T00:13:44;18.20;;;13.90;;
10045;SDS011;5063;50.878;4.742;2023-09-12T00:16:09;16.00;;;13.57;;
10045;SDS011;5063;50.878;4.742;2023-09-12T00:18:36;17.87;;;13.87;;
10045;SDS011;5063;50.878;4.742;2023-09-12T00:21:02;17.77;;;13.93;;
10045;SDS011;5063;50.878;4.742;2023-09-12T00:23:28;22.60;;;14.43;;
10045;SDS011;5063;50.878;4.742;2023-09-12T00:25:54;17.90;;;15.20;;
10045;SDS011;5063;50.878;4.742;2023-09-12T00:28:20;20.67;;;15.30;;
10045;SDS011;5063;50.878;4.742;2023-09-12T00:30:46;18.13;;;14.23;;
10045;SDS011;5063;50.878;4.742;2023-09-12T00:33:12;20.47;;;16.60;;
10045;SDS011;5063;50.878;4.742;2023-09-12T00:35:37;17.23;;;14.37;;
10045;SDS011;5063;50.878;4.742;2023-09-12T00:38:03;25.63;;;15.83;;
10045;SDS011;5063;50.878;4.742;2023-09-12T00:40:29;19.43;;;15.37;;
10045;SDS011;5063;50.878;4.742;2023-09-12T00:42:55;20.90;;;14.57;;
10045;SDS011;5063;50.878;4.742;2023-09-12T00:45:21;18.33;;;14.57;;
10045;SDS011;5063;50.878;4.742;2023-09-12T00:47:46;18.30;;;14.80;;
10045;SDS011;5063;50.878;4.742;2023-09-12T00:50:14;17.90;;;14.17;;
10045;SDS011;5063;50.878;4.742;2023-09-12T00:52:41;16.83;;;13.63;;
10045;SDS011;5063;50.878;4.742;2023-09-12T00:55:08;17.90;;;14.50;;
10045;SDS011;5063;50.878;4.742;2023-09-12T00:57:34;14.73;;;12.67;;
10045;SDS011;5063;50.878;4.742;2023-09-12T01:00:02;17.53;;;13.43;;
10045;SDS011;5063;50.878;4.742;2023-09-12T01:02:43;20.57;;;14.07;;
10045;SDS011;5063;50.878;4.742;2023-09-12T01:05:11;16.73;;;13.43;;
10045;SDS011;5063;50.878;4.742;2023-09-12T01:07:39;16.67;;;13.67;;
10045;SDS011;5063;50.878;4.742;2023-09-12T01:10:05;18.37;;;14.57;;
10045;SDS011;5063;50.878;4.742;2023-09-12T01:12:31;19.53;;;15.13;;
10045;SDS011;5063;50.878;4.742;2023-09-12T01:14:57;18.67;;;14.97;;
10045;SDS011;5063;50.878;4.742;2023-09-12T01:17:23;21.03;;;15.03;;
10045;SDS011;5063;50.878;4.742;2023-09-12T01:19:50;21.20;;;15.37;;
10045;SDS011;5063;50.878;4.742;2023-09-12T01:27:55;20.97;;;13.93;;
10045;SDS011;5063;50.878;4.742;2023-09-12T01:30:26;19.60;;;13.83;;
10045;SDS011;5063;50.878;4.742;2023-09-12T01:32:55;19.70;;;15.03;;
10045;SDS011;5063;50.878;4.742;2023-09-12T01:35:21;20.30;;;14.20;;
10045;SDS011;5063;50.878;4.742;2023-09-12T01:37:47;17.20;;;13.77;;
10045;SDS011;5063;50.878;4.742;2023-09-12T01:40:13;15.20;;;12.60;;
10045;SDS011;5063;50.878;4.742;2023-09-12T01:42:41;24.90;;;16.37;;
10045;SDS011;5063;50.878;4.742;2023-09-12T01:45:10;22.30;;;15.40;;
10045;SDS011;5063;50.878;4.742;2023-09-12T01:47:38;17.43;;;13.93;;
10045;SDS011;5063;50.878;4.742;2023-09-12T01:50:05;20.27;;;13.67;;
10045;SDS011;5063;50.878;4.742;2023-09-12T01:52:34;16.90;;;14.10;;
10045;SDS011;5063;50.878;4.742;2023-09-12T01:55:01;20.37;;;15.67;;
10045;SDS011;5063;50.878;4.742;2023-09-12T01:57:27;19.80;;;14.77;;
10045;SDS011;5063;50.878;4.742;2023-09-12T01:59:54;15.57;;;13.93;;
10045;SDS011;5063;50.878;4.742;2023-09-12T02:02:20;19.20;;;13.90;;
10045;SDS011;5063;50.878;4.742;2023-09-12T02:05:09;16.67;;;13.13;;
10045;SDS011;5063;50.878;4.742;2023-09-12T02:07:43;16.90;;;13.40;;
10045;SDS011;5063;50.878;4.742;2023-09-12T02:10:10;18.60;;;14.17;;
10045;SDS011;5063;50.878;4.742;2023-09-12T02:12:36;18.93;;;14.00;;
10045;SDS011;5063;50.878;4.742;2023-09-12T02:15:03;15.80;;;12.97;;
10045;SDS011;5063;50.878;4.742;2023-09-12T02:17:29;19.37;;;14.40;;
10045;SDS011;5063;50.878;4.742;2023-09-12T02:19:55;18.43;;;14.93;;
10045;SDS011;5063;50.878;4.742;2023-09-12T02:22:21;17.57;;;14.13;;
10045;SDS011;5063;50.878;4.742;2023-09-12T02:24:47;16.97;;;12.97;;
10045;SDS011;5063;50.878;4.742;2023-09-12T02:27:14;21.67;;;15.00;;
10045;SDS011;5063;50.878;4.742;2023-09-12T02:29:40;24.30;;;15.53;;
10045;SDS011;5063;50.878;4.742;2023-09-12T02:32:07;18.63;;;15.13;;
10045;SDS011;5063;50.878;4.742;2023-09-12T02:34:33;20.60;;;15.23;;
10045;SDS011;5063;50.878;4.742;2023-09-12T02:36:59;22.93;;;15.83;;
10045;SDS011;5063;50.878;4.742;2023-09-12T02:39:25;24.27;;;15.23;;
10045;SDS011;5063;50.878;4.742;2023-09-12T02:41:50;20.97;;;15.20;;
10045;SDS011;5063;50.878;4.742;2023-09-12T02:44:16;17.03;;;13.73;;
10045;SDS011;5063;50.878;4.742;2023-09-12T02:46:42;19.53;;;14.93;;
10045;SDS011;5063;50.878;4.742;2023-09-12T02:49:07;19.30;;;14.83;;
10045;SDS011;5063;50.878;4.742;2023-09-12T02:51:33;21.17;;;15.63;;
10045;SDS011;5063;50.878;4.742;2023-09-12T02:53:59;20.70;;;15.07;;
10045;SDS011;5063;50.878;4.742;2023-09-12T02:56:24;18.00;;;14.80;;
10045;SDS011;5063;50.878;4.742;2023-09-12T02:58:50;26.13;;;15.23;;
10045;SDS011;5063;50.878;4.742;2023-09-12T03:01:16;20.00;;;15.30;;
10045;SDS011;5063;50.878;4.742;2023-09-12T03:03:46;22.83;;;15.07;;
10045;SDS011;5063;50.878;4.742;2023-09-12T03:06:13;20.30;;;14.40;;
10045;SDS011;5063;50.878;4.742;2023-09-12T03:08:39;18.50;;;12.77;;
10045;SDS011;5063;50.878;4.742;2023-09-12T03:11:05;15.77;;;12.77;;
10045;SDS011;5063;50.878;4.742;2023-09-12T03:13:32;17.37;;;13.43;;
10045;SDS011;5063;50.878;4.742;2023-09-12T03:15:59;15.37;;;13.33;;
10045;SDS011;5063;50.878;4.742;2023-09-12T03:18:25;16.30;;;13.43;;
10045;SDS011;5063;50.878;4.742;2023-09-12T03:20:50;18.80;;;13.70;;
10045;SDS011;5063;50.878;4.742;2023-09-12T03:23:16;20.50;;;14.90;;
10045;SDS011;5063;50.878;4.742;2023-09-12T03:25:42;19.50;;;13.60;;
10045;SDS011;5063;50.878;4.742;2023-09-12T03:28:08;18.67;;;14.57;;
10045;SDS011;5063;50.878;4.742;2023-09-12T03:30:34;24.60;;;14.73;;
10045;SDS011;5063;50.878;4.742;2023-09-12T03:33:00;19.20;;;14.33;;
10045;SDS011;5063;50.878;4.742;2023-09-12T03:35:27;19.20;;;14.10;;
10045;SDS011;5063;50.878;4.742;2023-09-12T03:37:54;17.63;;;14.23;;
10045;SDS011;5063;50.878;4.742;2023-09-12T03:40:20;20.00;;;15.50;;
10045;SDS011;5063;50.878;4.742;2023-09-12T03:42:45;19.37;;;14.43;;
10045;SDS011;5063;50.878;4.742;2023-09-12T03:45:11;19.67;;;15.10;;
10045;SDS011;5063;50.878;4.742;2023-09-12T03:47:37;19.20;;;15.90;;
10045;SDS011;5063;50.878;4.742;2023-09-12T03:50:03;18.23;;;13.47;;
10045;SDS011;5063;50.878;4.742;2023-09-12T03:52:29;22.70;;;14.50;;
10045;SDS011;5063;50.878;4.742;2023-09-12T03:54:55;21.80;;;15.13;;
10045;SDS011;5063;50.878;4.742;2023-09-12T03:57:21;15.40;;;12.63;;
10045;SDS011;5063;50.878;4.742;2023-09-12T03:59:47;16.87;;;12.47;;
10045;SDS011;5063;50.878;4.742;2023-09-12T04:02:13;22.37;;;15.80;;
10045;SDS011;5063;50.878;4.742;2023-09-12T04:04:39;23.77;;;15.27;;
10045;SDS011;5063;50.878;4.742;2023-09-12T04:07:04;20.07;;;14.63;;
10045;SDS011;5063;50.878;4.742;2023-09-12T04:09:30;21.40;;;15.37;;
10045;SDS011;5063;50.878;4.742;2023-09-12T04:11:56;18.97;;;15.37;;
10045;SDS011;5063;50.878;4.742;2023-09-12T04:14:22;25.37;;;17.13;;
10045;SDS011;5063;50.878;4.742;2023-09-12T04:16:48;24.37;;;16.03;;
10045;SDS011;5063;50.878;4.742;2023-09-12T04:19:13;25.10;;;17.73;;
10045;SDS011;5063;50.878;4.742;2023-09-12T04:21:39;21.97;;;16.03;;
10045;SDS011;5063;50.878;4.742;2023-09-12T04:24:06;28.83;;;20.07;;
10045;SDS011;5063;50.878;4.742;2023-09-12T04:26:32;33.88;;;21.45;;
10045;SDS011;5063;50.878;4.742;2023-09-12T04:28:58;35.27;;;21.53;;
10045;SDS011;5063;50.878;4.742;2023-09-12T04:31:24;25.63;;;19.80;;
10045;SDS011;5063;50.878;4.742;2023-09-12T04:33:53;28.63;;;21.73;;
10045;SDS011;5063;50.878;4.742;2023-09-12T04:36:19;33.07;;;23.27;;
10045;SDS011;5063;50.878;4.742;2023-09-12T04:38:45;32.60;;;22.37;;
10045;SDS011;5063;50.878;4.742;2023-09-12T04:41:12;27.13;;;21.20;;
10045;SDS011;5063;50.878;4.742;2023-09-12T04:43:42;33.13;;;23.20;;
10045;SDS011;5063;50.878;4.742;2023-09-12T04:46:10;34.10;;;23.70;;
10045;SDS011;5063;50.878;4.742;2023-09-12T04:48:37;39.43;;;26.33;;
10045;SDS011;5063;50.878;4.742;2023-09-12T04:51:03;38.27;;;25.47;;
10045;SDS011;5063;50.878;4.742;2023-09-12T04:53:29;42.47;;;26.13;;
10045;SDS011;5063;50.878;4.742;2023-09-12T04:56:05;34.40;;;25.13;;
10045;SDS011;5063;50.878;4.742;2023-09-12T04:58:32;42.43;;;27.23;;
10045;SDS011;5063;50.878;4.742;2023-09-12T05:00:58;40.70;;;26.10;;
10045;SDS011;5063;50.878;4.742;2023-09-12T05:03:23;38.60;;;24.93;;
10045;SDS011;5063;50.878;4.742;2023-09-12T05:05:49;35.27;;;24.43;;
10045;SDS011;5063;50.878;4.742;2023-09-12T05:08:15;42.30;;;26.30;;
10045;SDS011;5063;50.878;4.742;2023-09-12T05:10:45;34.75;;;22.98;;
10045;SDS011;5063;50.878;4.742;2023-09-12T05:13:12;35.63;;;24.80;;
10045;SDS011;5063;50.878;4.742;2023-09-12T05:15:38;40.17;;;25.67;;
10045;SDS011;5063;50.878;4.742;2023-09-12T05:18:06;39.57;;;25.87;;
10045;SDS011;5063;50.878;4.742;2023-09-12T05:20:32;36.23;;;23.33;;
10045;SDS011;5063;50.878;4.742;2023-09-12T05:22:58;36.08;;;25.17;;
10045;SDS011;5063;50.878;4.742;2023-09-12T05:25:24;38.57;;;25.50;;
10045;SDS011;5063;50.878;4.742;2023-09-12T05:27:52;35.53;;;25.17;;
10045;SDS011;5063;50.878;4.742;2023-09-12T05:30:18;37.87;;;25.63;;
10045;SDS011;5063;50.878;4.742;2023-09-12T05:32:44;36.83;;;25.70;;
10045;SDS011;5063;50.878;4.742;2023-09-12T05:35:09;41.43;;;25.20;;
10045;SDS011;5063;50.878;4.742;2023-09-12T05:37:35;36.97;;;25.50;;
10045;SDS011;5063;50.878;4.742;2023-09-12T05:40:01;39.10;;;25.93;;
10045;SDS011;5063;50.878;4.742;2023-09-12T05:42:28;35.57;;;23.13;;
10045;SDS011;5063;50.878;4.742;2023-09-12T05:44:53;36.77;;;23.83;;
10045;SDS011;5063;50.878;4.742;2023-09-12T05:47:19;44.20;;;27.37;;
10045;SDS011;5063;50.878;4.742;2023-09-12T05:49:45;35.53;;;24.40;;
10045;SDS011;5063;50.878;4.742;2023-09-12T05:52:11;32.30;;;23.23;;
10045;SDS011;5063;50.878;4.742;2023-09-12T05:54:37;39.00;;;25.60;;
10045;SDS011;5063;50.878;4.742;2023-09-12T05:57:04;45.10;;;26.53;;
10045;SDS011;5063;50.878;4.742;2023-09-12T05:59:30;36.60;;;25.03;;
10045;SDS011;5063;50.878;4.742;2023-09-12T06:01:55;43.30;;;27.20;;
10045;SDS011;5063;50.878;4.742;2023-09-12T06:04:21;45.63;;;27.67;;
10045;SDS011;5063;50.878;4.742;2023-09-12T06:06:47;57.10;;;31.40;;
10045;SDS011;5063;50.878;4.742;2023-09-12T06:09:13;47.00;;;30.40;;
10045;SDS011;5063;50.878;4.742;2023-09-12T06:11:38;49.73;;;27.63;;
10045;SDS011;5063;50.878;4.742;2023-09-12T06:14:04;48.90;;;28.93;;
10045;SDS011;5063;50.878;4.742;2023-09-12T06:16:30;53.00;;;32.20;;
10045;SDS011;5063;50.878;4.742;2023-09-12T06:18:55;47.87;;;27.70;;
10045;SDS011;5063;50.878;4.742;2023-09-12T06:21:21;51.37;;;29.70;;
10045;SDS011;5063;50.878;4.742;2023-09-12T06:23:47;44.13;;;28.60;;
10045;SDS011;5063;50.878;4.742;2023-09-12T06:26:13;48.75;;;30.38;;
10045;SDS011;5063;50.878;4.742;2023-09-12T06:28:39;52.45;;;30.65;;
10045;SDS011;5063;50.878;4.742;2023-09-12T06:31:07;49.97;;;31.83;;
10045;SDS011;5063;50.878;4.742;2023-09-12T06:33:34;52.60;;;31.23;;
10045;SDS011;5063;50.878;4.742;2023-09-12T06:36:00;50.45;;;31.98;;
10045;SDS011;5063;50.878;4.742;2023-09-12T06:38:26;41.80;;;27.02;;
10045;SDS011;5063;50.878;4.742;2023-09-12T06:40:51;43.47;;;27.25;;
10045;SDS011;5063;50.878;4.742;2023-09-12T06:43:17;45.83;;;28.92;;
10045;SDS011;5063;50.878;4.742;2023-09-12T06:45:43;43.80;;;27.52;;
10045;SDS011;5063;50.878;4.742;2023-09-12T06:48:09;36.47;;;25.08;;
10045;SDS011;5063;50.878;4.742;2023-09-12T06:50:35;37.38;;;24.80;;
10045;SDS011;5063;50.878;4.742;2023-09-12T06:53:03;31.45;;;23.42;;
10045;SDS011;5063;50.878;4.742;2023-09-12T06:55:32;29.65;;;22.77;;
10045;SDS011;5063;50.878;4.742;2023-09-12T06:57:57;29.88;;;22.80;;
10045;SDS011;5063;50.878;4.742;2023-09-12T07:00:23;33.30;;;23.52;;
10045;SDS011;5063;50.878;4.742;2023-09-12T07:02:49;33.25;;;24.15;;
10045;SDS011;5063;50.878;4.742;2023-09-12T07:05:15;29.88;;;21.88;;
10045;SDS011;5063;50.878;4.742;2023-09-12T07:07:40;31.38;;;22.15;;
10045;SDS011;5063;50.878;4.742;2023-09-12T07:10:06;31.58;;;21.92;;
10045;SDS011;5063;50.878;4.742;2023-09-12T07:12:32;29.33;;;21.55;;
10045;SDS011;5063;50.878;4.742;2023-09-12T07:14:58;29.67;;;22.75;;
10045;SDS011;5063;50.878;4.742;2023-09-12T07:17:23;35.72;;;22.65;;
10045;SDS011;5063;50.878;4.742;2023-09-12T07:19:49;27.00;;;22.38;;
10045;SDS011;5063;50.878;4.742;2023-09-12T07:22:16;34.45;;;25.10;;
10045;SDS011;5063;50.878;4.742;2023-09-12T07:24:41;32.53;;;24.23;;
10045;SDS011;5063;50.878;4.742;2023-09-12T07:27:07;34.13;;;24.67;;
10045;SDS011;5063;50.878;4.742;2023-09-12T07:29:33;27.90;;;22.30;;
10045;SDS011;5063;50.878;4.742;2023-09-12T07:31:59;29.33;;;20.42;;
10045;SDS011;5063;50.878;4.742;2023-09-12T07:34:24;30.27;;;23.33;;
10045;SDS011;5063;50.878;4.742;2023-09-12T07:36:50;30.23;;;21.70;;
10045;SDS011;5063;50.878;4.742;2023-09-12T07:39:19;30.20;;;20.67;;
10045;SDS011;5063;50.878;4.742;2023-09-12T07:41:45;32.20;;;22.98;;
10045;SDS011;5063;50.878;4.742;2023-09-12T07:44:12;29.90;;;20.75;;
10045;SDS011;5063;50.878;4.742;2023-09-12T07:46:40;30.42;;;23.00;;
10045;SDS011;5063;50.878;4.742;2023-09-12T07:49:06;27.92;;;18.48;;
10045;SDS011;5063;50.878;4.742;2023-09-12T07:51:34;27.58;;;20.48;;
10045;SDS011;5063;50.878;4.742;2023-09-12T07:54:00;23.92;;;17.58;;
10045;SDS011;5063;50.878;4.742;2023-09-12T07:56:26;26.70;;;19.85;;
10045;SDS011;5063;50.878;4.742;2023-09-12T07:58:52;28.25;;;20.00;;
10045;SDS011;5063;50.878;4.742;2023-09-12T08:01:18;27.05;;;20.13;;
10045;SDS011;5063;50.878;4.742;2023-09-12T08:03:43;28.58;;;22.52;;
10045;SDS011;5063;50.878;4.742;2023-09-12T08:06:09;36.85;;;24.77;;
10045;SDS011;5063;50.878;4.742;2023-09-12T08:08:35;33.72;;;23.48;;
10045;SDS011;5063;50.878;4.742;2023-09-12T08:11:01;28.23;;;22.27;;
10045;SDS011;5063;50.878;4.742;2023-09-12T08:13:27;25.63;;;20.13;;
10045;SDS011;5063;50.878;4.742;2023-09-12T08:15:54;24.85;;;17.63;;
10045;SDS011;5063;50.878;4.742;2023-09-12T08:18:20;24.23;;;16.33;;
10045;SDS011;5063;50.878;4.742;2023-09-12T08:20:46;19.27;;;13.77;;
10045;SDS011;5063;50.878;4.742;2023-09-12T08:23:12;21.45;;;16.23;;
10045;SDS011;5063;50.878;4.742;2023-09-12T08:25:39;26.50;;;16.98;;
10045;SDS011;5063;50.878;4.742;2023-09-12T08:28:05;22.60;;;16.52;;
10045;SDS011;5063;50.878;4.742;2023-09-12T08:30:30;25.00;;;16.33;;
10045;SDS011;5063;50.878;4.742;2023-09-12T08:32:57;22.08;;;16.95;;
10045;SDS011;5063;50.878;4.742;2023-09-12T08:35:23;26.77;;;17.67;;
10045;SDS011;5063;50.878;4.742;2023-09-12T08:37:51;24.23;;;17.08;;
10045;SDS011;5063;50.878;4.742;2023-09-12T08:40:17;24.15;;;16.02;;
10045;SDS011;5063;50.878;4.742;2023-09-12T08:42:43;24.40;;;17.95;;
10045;SDS011;5063;50.878;4.742;2023-09-12T08:45:11;25.48;;;17.88;;
10045;SDS011;5063;50.878;4.742;2023-09-12T08:47:42;24.05;;;16.35;;
10045;SDS011;5063;50.878;4.742;2023-09-12T08:50:10;24.40;;;16.77;;
10045;SDS011;5063;50.878;4.742;2023-09-12T08:52:37;23.60;;;16.95;;
10045;SDS011;5063;50.878;4.742;2023-09-12T08:55:03;24.30;;;14.85;;
10045;SDS011;5063;50.878;4.742;2023-09-12T08:57:30;20.85;;;16.13;;
10045;SDS011;5063;50.878;4.742;2023-09-12T09:00:01;22.27;;;14.50;;
10045;SDS011;5063;50.878;4.742;2023-09-12T09:02:35;26.33;;;17.60;;
10045;SDS011;5063;50.878;4.742;2023-09-12T09:05:03;21.02;;;14.77;;
10045;SDS011;5063;50.878;4.742;2023-09-12T09:07:34;20.13;;;14.40;;
10045;SDS011;5063;50.878;4.742;2023-09-12T09:10:05;18.50;;;13.90;;
10045;SDS011;5063;50.878;4.742;2023-09-12T09:12:33;25.80;;;17.17;;
10045;SDS011;5063;50.878;4.742;2023-09-12T09:15:19;24.17;;;15.65;;
10045;SDS011;5063;50.878;4.742;2023-09-12T09:17:53;30.92;;;19.52;;
10045;SDS011;5063;50.878;4.742;2023-09-12T09:20:33;21.88;;;17.00;;
10045;SDS011;5063;50.878;4.742;2023-09-12T09:23:11;24.52;;;17.45;;
10045;SDS011;5063;50.878;4.742;2023-09-12T09:25:41;25.80;;;18.52;;
10045;SDS011;5063;50.878;4.742;2023-09-12T09:28:17;23.52;;;16.25;;
10045;SDS011;5063;50.878;4.742;2023-09-12T09:30:45;23.73;;;17.95;;
10045;SDS011;5063;50.878;4.742;2023-09-12T09:33:12;22.35;;;14.50;;
10045;SDS011;5063;50.878;4.742;2023-09-12T09:35:42;18.63;;;13.07;;
10045;SDS011;5063;50.878;4.742;2023-09-12T09:38:12;21.67;;;14.73;;
10045;SDS011;5063;50.878;4.742;2023-09-12T09:40:42;22.30;;;14.57;;
10045;SDS011;5063;50.878;4.742;2023-09-12T09:43:08;19.63;;;13.73;;
10045;SDS011;5063;50.878;4.742;2023-09-12T09:45:42;18.48;;;12.82;;
10045;SDS011;5063;50.878;4.742;2023-09-12T09:48:10;16.88;;;11.63;;
10045;SDS011;5063;50.878;4.742;2023-09-12T09:50:42;17.77;;;11.38;;
10045;SDS011;5063;50.878;4.742;2023-09-12T09:53:08;14.02;;;8.93;;
10045;SDS011;5063;50.878;4.742;2023-09-12T09:55:35;15.50;;;10.77;;
10045;SDS011;5063;50.878;4.742;2023-09-12T09:58:01;13.50;;;8.73;;
10045;SDS011;5063;50.878;4.742;2023-09-12T10:00:28;10.20;;;7.97;;
10045;SDS011;5063;50.878;4.742;2023-09-12T10:02:55;9.38;;;7.40;;
10045;SDS011;5063;50.878;4.742;2023-09-12T10:05:21;11.85;;;8.32;;
10045;SDS011;5063;50.878;4.742;2023-09-12T10:07:49;11.50;;;9.65;;
10045;SDS011;5063;50.878;4.742;2023-09-12T10:10:18;13.45;;;9.13;;
10045;SDS011;5063;50.878;4.742;2023-09-12T10:13:05;12.20;;;8.90;;
10045;SDS011;5063;50.878;4.742;2023-09-12T10:15:30;11.40;;;9.15;;
10045;SDS011;5063;50.878;4.742;2023-09-12T10:17:59;14.20;;;8.55;;
10045;SDS011;5063;50.878;4.742;2023-09-12T10:20:35;12.68;;;8.15;;
10045;SDS011;5063;50.878;4.742;2023-09-12T10:23:11;10.77;;;7.75;;
10045;SDS011;5063;50.878;4.742;2023-09-12T10:25:44;11.43;;;8.15;;
10045;SDS011;5063;50.878;4.742;2023-09-12T10:28:10;9.52;;;7.78;;
10045;SDS011;5063;50.878;4.742;2023-09-12T10:30:37;8.73;;;6.32;;
10045;SDS011;5063;50.878;4.742;2023-09-12T10:33:04;13.93;;;7.82;;
10045;SDS011;5063;50.878;4.742;2023-09-12T10:35:31;10.63;;;7.97;;
10045;SDS011;5063;50.878;4.742;2023-09-12T10:37:59;8.98;;;7.13;;
10045;SDS011;5063;50.878;4.742;2023-09-12T10:40:29;9.95;;;6.97;;
10045;SDS011;5063;50.878;4.742;2023-09-12T10:42:56;9.82;;;6.78;;
10045;SDS011;5063;50.878;4.742;2023-09-12T10:45:24;7.32;;;5.60;;
10045;SDS011;5063;50.878;4.742;2023-09-12T10:47:51;9.98;;;6.80;;
10045;SDS011;5063;50.878;4.742;2023-09-12T10:50:17;7.03;;;5.50;;
10045;SDS011;5063;50.878;4.742;2023-09-12T10:52:45;10.35;;;6.40;;
10045;SDS011;5063;50.878;4.742;2023-09-12T10:55:15;6.53;;;5.80;;
10045;SDS011;5063;50.878;4.742;2023-09-12T10:58:00;6.47;;;5.35;;
10045;SDS011;5063;50.878;4.742;2023-09-12T11:00:28;7.00;;;5.68;;
10045;SDS011;5063;50.878;4.742;2023-09-12T11:02:53;9.35;;;6.78;;
10045;SDS011;5063;50.878;4.742;2023-09-12T11:07:57;10.18;;;6.45;;
10045;SDS011;5063;50.878;4.742;2023-09-12T11:10:25;9.05;;;5.70;;
10045;SDS011;5063;50.878;4.742;2023-09-12T11:12:51;13.15;;;10.85;;
10045;SDS011;5063;50.878;4.742;2023-09-12T11:15:23;13.52;;;10.00;;
10045;SDS011;5063;50.878;4.742;2023-09-12T11:18:00;11.32;;;8.77;;
10045;SDS011;5063;50.878;4.742;2023-09-12T11:20:48;12.52;;;10.38;;
10045;SDS011;5063;50.878;4.742;2023-09-12T11:23:32;12.93;;;8.75;;
10045;SDS011;5063;50.878;4.742;2023-09-12T11:26:06;10.40;;;7.82;;
10045;SDS011;5063;50.878;4.742;2023-09-12T11:28:32;16.40;;;8.98;;
10045;SDS011;5063;50.878;4.742;2023-09-12T11:30:58;9.27;;;5.53;;
10045;SDS011;5063;50.878;4.742;2023-09-12T11:33:24;6.65;;;5.35;;
10045;SDS011;5063;50.878;4.742;2023-09-12T11:35:54;17.20;;;8.73;;
10045;SDS011;5063;50.878;4.742;2023-09-12T11:38:29;11.88;;;9.63;;
10045;SDS011;5063;50.878;4.742;2023-09-12T11:40:56;11.30;;;8.65;;
10045;SDS011;5063;50.878;4.742;2023-09-12T11:43:23;15.18;;;9.75;;
10045;SDS011;5063;50.878;4.742;2023-09-12T11:45:50;13.60;;;8.70;;
10045;SDS011;5063;50.878;4.742;2023-09-12T11:48:17;12.65;;;8.88;;
10045;SDS011;5063;50.878;4.742;2023-09-12T11:50:48;12.02;;;9.20;;
10045;SDS011;5063;50.878;4.742;2023-09-12T11:53:18;12.07;;;8.98;;
10045;SDS011;5063;50.878;4.742;2023-09-12T11:55:50;9.82;;;8.02;;
10045;SDS011;5063;50.878;4.742;2023-09-12T11:58:22;8.98;;;7.43;;
10045;SDS011;5063;50.878;4.742;2023-09-12T12:00:50;11.25;;;8.55;;
10045;SDS011;5063;50.878;4.742;2023-09-12T12:03:19;9.77;;;8.75;;
10045;SDS011;5063;50.878;4.742;2023-09-12T12:05:46;12.00;;;8.57;;
10045;SDS011;5063;50.878;4.742;2023-09-12T12:08:13;12.07;;;8.98;;
10045;SDS011;5063;50.878;4.742;2023-09-12T12:10:40;10.30;;;8.02;;
10045;SDS011;5063;50.878;4.742;2023-09-12T12:13:10;11.27;;;7.45;;
10045;SDS011;5063;50.878;4.742;2023-09-12T12:15:37;11.27;;;7.97;;
10045;SDS011;5063;50.878;4.742;2023-09-12T12:18:03;10.68;;;8.63;;
10045;SDS011;5063;50.878;4.742;2023-09-12T12:20:29;11.00;;;7.68;;
10045;SDS011;5063;50.878;4.742;2023-09-12T12:22:55;13.35;;;8.45;;
10045;SDS011;5063;50.878;4.742;2023-09-12T12:25:21;13.25;;;8.38;;
10045;SDS011;5063;50.878;4.742;2023-09-12T12:27:47;7.72;;;6.93;;
10045;SDS011;5063;50.878;4.742;2023-09-12T12:30:13;8.45;;;6.40;;
10045;SDS011;5063;50.878;4.742;2023-09-12T12:32:43;13.80;;;7.13;;
10045;SDS011;5063;50.878;4.742;2023-09-12T12:35:20;9.48;;;7.47;;
10045;SDS011;5063;50.878;4.742;2023-09-12T12:37:48;12.43;;;7.28;;
10045;SDS011;5063;50.878;4.742;2023-09-12T12:40:15;9.73;;;7.88;;
10045;SDS011;5063;50.878;4.742;2023-09-12T12:42:44;9.73;;;7.45;;
10045;SDS011;5063;50.878;4.742;2023-09-12T12:45:15;8.10;;;6.75;;
10045;SDS011;5063;50.878;4.742;2023-09-12T12:47:41;10.77;;;7.28;;
10045;SDS011;5063;50.878;4.742;2023-09-12T12:50:11;8.90;;;6.75;;
10045;SDS011;5063;50.878;4.742;2023-09-12T12:52:38;8.07;;;6.10;;
10045;SDS011;5063;50.878;4.742;2023-09-12T12:55:05;8.07;;;5.97;;
10045;SDS011;5063;50.878;4.742;2023-09-12T12:57:39;8.45;;;6.72;;
10045;SDS011;5063;50.878;4.742;2023-09-12T13:00:16;8.15;;;6.63;;
10045;SDS011;5063;50.878;4.742;2023-09-12T13:02:43;10.30;;;7.22;;
10045;SDS011;5063;50.878;4.742;2023-09-12T13:05:27;10.90;;;6.90;;
10045;SDS011;5063;50.878;4.742;2023-09-12T13:07:54;9.02;;;6.70;;
10045;SDS011;5063;50.878;4.742;2023-09-12T13:10:20;7.60;;;6.40;;
10045;SDS011;5063;50.878;4.742;2023-09-12T13:12:47;7.65;;;6.53;;
10045;SDS011;5063;50.878;4.742;2023-09-12T13:15:13;8.45;;;6.07;;
10045;SDS011;5063;50.878;4.742;2023-09-12T13:17:40;8.85;;;6.70;;
10045;SDS011;5063;50.878;4.742;2023-09-12T13:20:07;8.35;;;5.85;;
10045;SDS011;5063;50.878;4.742;2023-09-12T13:22:36;6.78;;;6.10;;
10045;SDS011;5063;50.878;4.742;2023-09-12T13:25:02;10.05;;;6.10;;
10045;SDS011;5063;50.878;4.742;2023-09-12T13:27:29;8.32;;;6.43;;
10045;SDS011;5063;50.878;4.742;2023-09-12T13:29:55;7.68;;;6.32;;
10045;SDS011;5063;50.878;4.742;2023-09-12T13:32:20;8.07;;;6.80;;
10045;SDS011;5063;50.878;4.742;2023-09-12T13:34:46;7.30;;;6.60;;
10045;SDS011;5063;50.878;4.742;2023-09-12T13:37:12;9.82;;;6.85;;
10045;SDS011;5063;50.878;4.742;2023-09-12T13:39:38;9.32;;;7.00;;
10045;SDS011;5063;50.878;4.742;2023-09-12T13:42:05;9.73;;;7.18;;
10045;SDS011;5063;50.878;4.742;2023-09-12T13:44:33;11.57;;;7.90;;
10045;SDS011;5063;50.878;4.742;2023-09-12T13:46:59;9.88;;;8.15;;
10045;SDS011;5063;50.878;4.742;2023-09-12T13:49:25;11.88;;;7.80;;
10045;SDS011;5063;50.878;4.742;2023-09-12T13:51:50;11.63;;;9.50;;
10045;SDS011;5063;50.878;4.742;2023-09-12T13:54:16;14.40;;;10.43;;
10045;SDS011;5063;50.878;4.742;2023-09-12T13:56:41;11.05;;;8.38;;
10045;SDS011;5063;50.878;4.742;2023-09-12T13:59:07;13.85;;;10.10;;
10045;SDS011;5063;50.878;4.742;2023-09-12T14:01:33;10.85;;;9.43;;
10045;SDS011;5063;50.878;4.742;2023-09-12T14:03:59;12.65;;;9.40;;
10045;SDS011;5063;50.878;4.742;2023-09-12T14:06:25;14.65;;;10.40;;
10045;SDS011;5063;50.878;4.742;2023-09-12T14:08:51;11.88;;;10.57;;
10045;SDS011;5063;50.878;4.742;2023-09-12T14:11:17;13.02;;;9.80;;
10045;SDS011;5063;50.878;4.742;2023-09-12T14:13:43;11.82;;;9.32;;
10045;SDS011;5063;50.878;4.742;2023-09-12T14:16:09;12.40;;;8.63;;
10045;SDS011;5063;50.878;4.742;2023-09-12T14:18:34;11.90;;;9.00;;
10045;SDS011;5063;50.878;4.742;2023-09-12T14:21:00;15.35;;;9.02;;
10045;SDS011;5063;50.878;4.742;2023-09-12T14:23:26;13.25;;;8.25;;
10045;SDS011;5063;50.878;4.742;2023-09-12T14:25:52;12.43;;;9.05;;
10045;SDS011;5063;50.878;4.742;2023-09-12T14:28:17;19.13;;;8.90;;
10045;SDS011;5063;50.878;4.742;2023-09-12T14:30:43;12.18;;;8.57;;
10045;SDS011;5063;50.878;4.742;2023-09-12T14:33:13;12.68;;;8.23;;
10045;SDS011;5063;50.878;4.742;2023-09-12T14:35:39;9.35;;;7.60;;
10045;SDS011;5063;50.878;4.742;2023-09-12T14:38:06;10.40;;;8.02;;
10045;SDS011;5063;50.878;4.742;2023-09-12T14:40:32;8.63;;;7.40;;
10045;SDS011;5063;50.878;4.742;2023-09-12T14:42:59;8.80;;;7.13;;
10045;SDS011;5063;50.878;4.742;2023-09-12T14:45:27;9.73;;;7.07;;
10045;SDS011;5063;50.878;4.742;2023-09-12T14:47:53;10.27;;;7.78;;
10045;SDS011;5063;50.878;4.742;2023-09-12T14:50:20;13.00;;;7.55;;